Portada
METAR-TAF:

METAR-TAF

Aeropuertos :

Majuro, Majuro Atoll, Islas Marshall

Aeropuerto Internacional Amata Kabua

latitud: 07-04N, longitud: 171-17E, altitud: 2 m

Observación

El informe se hizo hace 6 horas y 10 minutos, a las 23:52 UTC
Viento 12 kt del este-noreste
Temperatura 30°C
Humedad 75%
Presión 1011 hPa
Visibilidad: 24.1 km
Escasas nubes a una altura de 1500 ft
Nubes dispersas a una altura de 5000 ft
Cielo nuboso a una altura de 30000 ft

METAR: PKMJ 162352Z 06012KT 15SM FEW015 SCT050 BKN300 30/25 A2984

Hora: 18:02 (06:02 UTC)

Pronóstico

El informe se hizo hace 42 minutos, a las 05:20 UTC
Pronóstico válido del 17 a las 06 UTC al 18 a las 06 UTC
Viento 10 kt del este
Visibilidad: 10 km
Escasas nubes a una altura de 1500 ft
Nubes dispersas a una altura de 6000 ft
chaparrones en las proximidades

TAF: PKMJ 170520Z 1706/1806 09010KT P6SM VCSH FEW015 SCT060

Observaciones y pronósticos meteorológicos de más de 4000 aeropuertos (mensajes METAR y TAF).

Los puntos amarillos y rojos representan las estaciones disponibles.

Ponga el ratón en el punto deseado para ver el nombre de la estación.

Haga clic para ver las observaciones y los pronósticos meteorológicos.

Para cambiar el mapa : haga clic en los botones verdes con una cruz de color negro para hacer un zoom, en el botón verde con un guión para alejar o en las flechas verdes para mapas adyacentes.


METAR-TAF: